Time;durP1;ratioP1;P1;durP2;ratioP2;P2;SDS_P1;SDS_P2;PMS_P1;PMS_P2;Temp;Humidity;BMP_temperature;BMP_pressure;BME280_temperature;BME280_humidity;BME280_pressure;Samples;Min_cycle;Max_cycle;Signal;HPM_P1;HPM_P2
2023/08/17 00:00:14;;;;;;;4.32;1.67;;;;;;;;;;4945965;28;20232;-87
2023/08/17 00:02:40;;;;;;;1.88;1.13;;;;;;;;;;4933559;28;20262;-86
2023/08/17 00:05:08;;;;;;;9.18;1.52;;;;;;;;;;4932953;28;20300;-87
2023/08/17 00:07:34;;;;;;;3.72;1.15;;;;;;;;;;4952378;28;20210;-87
2023/08/17 00:10:00;;;;;;;2.47;1.30;;;;;;;;;;4970811;28;20281;-87
2023/08/17 00:12:28;;;;;;;2.85;1.40;;;;;;;;;;4946399;28;20237;-86
2023/08/17 00:14:56;;;;;;;3.08;1.33;;;;;;;;;;4956622;28;20214;-86
2023/08/17 00:17:24;;;;;;;4.30;1.50;;;;;;;;;;4958856;28;20271;-86
2023/08/17 00:19:54;;;;;;;4.00;1.45;;;;;;;;;;4956114;28;20282;-85
2023/08/17 00:22:22;;;;;;;3.63;1.50;;;;;;;;;;4972890;28;20609;-87
2023/08/17 00:24:50;;;;;;;4.13;1.60;;;;;;;;;;4944312;28;20218;-87
2023/08/17 00:27:17;;;;;;;2.15;1.42;;;;;;;;;;4934230;28;20794;-86
2023/08/17 00:29:43;;;;;;;4.32;1.30;;;;;;;;;;4927894;28;20234;-87
2023/08/17 00:32:09;;;;;;;1.70;1.35;;;;;;;;;;4955202;28;20214;-87
2023/08/17 00:34:35;;;;;;;3.33;1.48;;;;;;;;;;4959645;28;20218;-86
2023/08/17 00:37:05;;;;;;;4.50;1.58;;;;;;;;;;4965896;28;20925;-87
2023/08/17 00:39:33;;;;;;;6.00;1.60;;;;;;;;;;4960838;28;20226;-88
2023/08/17 00:42:04;;;;;;;4.07;1.50;;;;;;;;;;4946483;28;20259;-86
2023/08/17 00:44:32;;;;;;;2.95;1.50;;;;;;;;;;4943662;28;20225;-85
2023/08/17 00:47:02;;;;;;;5.40;1.30;;;;;;;;;;4959975;28;20222;-85
2023/08/17 00:49:30;;;;;;;2.38;1.38;;;;;;;;;;4962869;28;20229;-85
2023/08/17 00:51:56;;;;;;;3.25;1.33;;;;;;;;;;4943157;28;20218;-85
2023/08/17 00:54:23;;;;;;;2.05;1.20;;;;;;;;;;4958896;28;20679;-85
2023/08/17 00:56:49;;;;;;;3.30;1.67;;;;;;;;;;4958335;28;20313;-85
2023/08/17 00:59:15;;;;;;;5.40;1.40;;;;;;;;;;4938943;28;20206;-86
2023/08/17 01:01:40;;;;;;;1.80;1.38;;;;;;;;;;4944208;28;20230;-85
2023/08/17 01:04:06;;;;;;;2.97;1.58;;;;;;;;;;4937442;28;20220;-85
2023/08/17 01:06:32;;;;;;;4.50;1.50;;;;;;;;;;4974166;28;20221;-84
2023/08/17 01:08:57;;;;;;;1.85;1.27;;;;;;;;;;4961323;28;20214;-87
2023/08/17 01:11:29;;;;;;;3.72;1.60;;;;;;;;;;4948406;28;21095;-84
2023/08/17 01:14:10;;;;;;;4.85;1.55;;;;;;;;;;4947231;28;20222;-85
2023/08/17 01:16:42;;;;;;;1.80;1.08;;;;;;;;;;4954605;28;20528;-85
2023/08/17 01:19:10;;;;;;;2.88;1.40;;;;;;;;;;4952716;28;20217;-84
2023/08/17 01:21:49;;;;;;;3.45;1.33;;;;;;;;;;4943317;28;20257;-82
2023/08/17 01:24:17;;;;;;;3.70;1.50;;;;;;;;;;4964582;28;20209;-87
2023/08/17 01:26:45;;;;;;;2.90;1.38;;;;;;;;;;4921048;28;20221;-84
2023/08/17 01:29:13;;;;;;;3.78;1.73;;;;;;;;;;4926662;28;20217;-84
2023/08/17 01:32:07;;;;;;;2.08;1.38;;;;;;;;;;4939567;28;20225;-84
2023/08/17 01:34:37;;;;;;;3.05;1.38;;;;;;;;;;4957706;28;20330;-84
2023/08/17 01:37:06;;;;;;;4.72;1.70;;;;;;;;;;4931745;28;20221;-85
2023/08/17 01:39:45;;;;;;;2.50;1.20;;;;;;;;;;4953801;28;20217;-83
2023/08/17 01:42:13;;;;;;;2.88;1.60;;;;;;;;;;4944554;28;20229;-86
2023/08/17 01:44:39;;;;;;;1.67;1.25;;;;;;;;;;4977564;28;20769;-85
2023/08/17 01:47:04;;;;;;;1.95;1.20;;;;;;;;;;4951355;28;20669;-86
2023/08/17 01:49:30;;;;;;;4.90;1.40;;;;;;;;;;4930554;28;20209;-85
2023/08/17 01:52:00;;;;;;;2.78;1.50;;;;;;;;;;4948459;28;20241;-85
2023/08/17 01:54:27;;;;;;;2.63;1.50;;;;;;;;;;4945863;28;20241;-85
2023/08/17 01:56:52;;;;;;;2.67;1.50;;;;;;;;;;4953975;28;20229;-86
2023/08/17 01:59:20;;;;;;;1.98;1.27;;;;;;;;;;4958097;28;20231;-86
2023/08/17 02:01:48;;;;;;;2.58;1.30;;;;;;;;;;4949317;28;20312;-85
2023/08/17 02:04:18;;;;;;;2.97;1.40;;;;;;;;;;4940341;28;20588;-85
2023/08/17 02:06:44;;;;;;;3.50;1.48;;;;;;;;;;4948424;28;20214;-84
2023/08/17 02:09:12;;;;;;;2.72;1.42;;;;;;;;;;4948020;28;20241;-84
2023/08/17 02:11:37;;;;;;;3.78;1.30;;;;;;;;;;4968762;28;20304;-86
2023/08/17 02:14:05;;;;;;;3.63;1.52;;;;;;;;;;4920891;28;20221;-87
2023/08/17 02:16:34;;;;;;;3.05;1.52;;;;;;;;;;4947915;28;20218;-85
2023/08/17 02:18:59;;;;;;;2.40;1.20;;;;;;;;;;4968133;28;20657;-85
2023/08/17 02:21:25;;;;;;;4.60;1.60;;;;;;;;;;4951214;28;20240;-86
2023/08/17 02:23:53;;;;;;;2.45;1.40;;;;;;;;;;4964756;28;20225;-85
2023/08/17 02:26:21;;;;;;;1.85;1.17;;;;;;;;;;4947906;28;20249;-85
2023/08/17 02:28:49;;;;;;;1.77;1.10;;;;;;;;;;4951707;28;20234;-85
2023/08/17 02:31:15;;;;;;;2.63;1.20;;;;;;;;;;4950358;28;20226;-85
2023/08/17 02:33:40;;;;;;;1.52;1.25;;;;;;;;;;4959144;28;20248;-85
2023/08/17 02:36:08;;;;;;;4.72;1.48;;;;;;;;;;4964801;28;20269;-85
2023/08/17 02:38:36;;;;;;;3.60;1.08;;;;;;;;;;4947216;28;20218;-87
2023/08/17 02:41:07;;;;;;;3.25;1.25;;;;;;;;;;4954969;28;20294;-85
2023/08/17 02:43:32;;;;;;;5.07;1.50;;;;;;;;;;4963912;28;20225;-86
2023/08/17 02:46:01;;;;;;;3.05;1.30;;;;;;;;;;4949915;28;20212;-86
2023/08/17 02:48:28;;;;;;;1.70;1.10;;;;;;;;;;4939664;28;20861;-86
2023/08/17 02:50:59;;;;;;;3.53;1.40;;;;;;;;;;4963227;28;20578;-84
2023/08/17 02:53:24;;;;;;;4.13;1.52;;;;;;;;;;4938357;28;20605;-85
2023/08/17 02:55:52;;;;;;;3.15;1.33;;;;;;;;;;4961128;28;20229;-85
2023/08/17 02:58:21;;;;;;;1.60;1.27;;;;;;;;;;4939994;28;20596;-86
2023/08/17 03:00:46;;;;;;;5.40;1.77;;;;;;;;;;4929541;28;20213;-85
2023/08/17 03:03:14;;;;;;;3.10;1.13;;;;;;;;;;4962388;28;20248;-86
2023/08/17 03:05:40;;;;;;;2.55;1.40;;;;;;;;;;4933009;28;20967;-85
2023/08/17 03:08:08;;;;;;;5.88;1.50;;;;;;;;;;4958863;28;20230;-86
2023/08/17 03:10:33;;;;;;;3.00;1.35;;;;;;;;;;4978220;28;20245;-86
2023/08/17 03:12:59;;;;;;;3.63;1.60;;;;;;;;;;4963974;28;20222;-85
2023/08/17 03:15:52;;;;;;;4.00;1.85;;;;;;;;;;4932448;28;20237;-86
2023/08/17 03:18:18;;;;;;;1.85;1.38;;;;;;;;;;4951741;28;20238;-85
2023/08/17 03:20:46;;;;;;;2.42;1.40;;;;;;;;;;4982434;28;20690;-84
2023/08/17 03:23:12;;;;;;;5.57;1.88;;;;;;;;;;4922524;28;20241;-84
2023/08/17 03:25:40;;;;;;;2.63;1.77;;;;;;;;;;4966647;28;20210;-85
2023/08/17 03:28:08;;;;;;;6.15;1.90;;;;;;;;;;4960803;28;20233;-85
2023/08/17 03:30:37;;;;;;;3.08;1.77;;;;;;;;;;4950546;28;20217;-87
2023/08/17 03:33:03;;;;;;;3.92;2.00;;;;;;;;;;4975465;28;20249;-83
2023/08/17 03:35:33;;;;;;;9.40;1.85;;;;;;;;;;4979527;28;20221;-85
2023/08/17 03:37:58;;;;;;;5.13;1.90;;;;;;;;;;4932068;28;20217;-85
2023/08/17 03:40:24;;;;;;;4.55;1.88;;;;;;;;;;4957172;28;20227;-84
2023/08/17 03:42:52;;;;;;;3.65;2.00;;;;;;;;;;4958220;28;20227;-85
2023/08/17 03:45:18;;;;;;;4.28;2.20;;;;;;;;;;4959236;28;20240;-84
2023/08/17 03:47:43;;;;;;;3.95;2.25;;;;;;;;;;4946155;28;20233;-78
2023/08/17 03:50:09;;;;;;;3.28;2.00;;;;;;;;;;4958426;28;20224;-76
2023/08/17 03:52:35;;;;;;;4.55;2.22;;;;;;;;;;4950644;28;20281;-79
2023/08/17 03:55:06;;;;;;;5.05;2.25;;;;;;;;;;4939659;28;20233;-79
2023/08/17 03:57:35;;;;;;;3.28;2.20;;;;;;;;;;4951631;28;20705;-79
2023/08/17 04:04:18;;;;;;;9.88;2.40;;;;;;;;;;4990275;28;20816;-79
2023/08/17 04:06:44;;;;;;;3.15;2.10;;;;;;;;;;4964304;28;20228;-78
2023/08/17 04:09:09;;;;;;;4.13;2.60;;;;;;;;;;4962629;28;20251;-80
2023/08/17 04:11:37;;;;;;;4.78;2.53;;;;;;;;;;4961125;28;21269;-76
2023/08/17 04:14:05;;;;;;;4.20;2.40;;;;;;;;;;4976001;28;20222;-79
2023/08/17 04:16:34;;;;;;;2.63;1.92;;;;;;;;;;4966836;28;20225;-81
2023/08/17 04:19:16;;;;;;;3.83;2.30;;;;;;;;;;4950456;28;20234;-80
2023/08/17 04:21:42;;;;;;;5.30;2.53;;;;;;;;;;4982346;28;20244;-79
2023/08/17 04:24:12;;;;;;;4.10;2.90;;;;;;;;;;4977836;28;20229;-79
2023/08/17 04:26:38;;;;;;;3.83;2.63;;;;;;;;;;4940337;28;20249;-78
2023/08/17 04:29:15;;;;;;;4.03;2.33;;;;;;;;;;4952001;28;20724;-80
2023/08/17 04:31:42;;;;;;;6.22;2.58;;;;;;;;;;4970602;28;20599;-78
2023/08/17 04:34:08;;;;;;;4.22;2.53;;;;;;;;;;4973091;28;20217;-78
2023/08/17 04:36:37;;;;;;;7.30;3.10;;;;;;;;;;4970039;28;20226;-79
2023/08/17 04:39:09;;;;;;;7.38;2.70;;;;;;;;;;4977340;28;20218;-79
2023/08/17 04:41:34;;;;;;;5.30;2.55;;;;;;;;;;4989953;22;20231;-76
2023/08/17 04:44:03;;;;;;;3.22;2.60;;;;;;;;;;4980305;28;20601;-77
2023/08/17 04:46:31;;;;;;;5.63;2.95;;;;;;;;;;4991145;28;20698;-77
2023/08/17 04:49:00;;;;;;;3.85;2.70;;;;;;;;;;4961074;28;20232;-76
2023/08/17 04:51:29;;;;;;;4.25;2.65;;;;;;;;;;4984796;28;20592;-77
2023/08/17 04:53:59;;;;;;;3.05;2.72;;;;;;;;;;4989679;28;20280;-76
2023/08/17 04:56:24;;;;;;;3.08;2.30;;;;;;;;;;4970684;28;20303;-76
2023/08/17 04:58:51;;;;;;;4.63;3.78;;;;;;;;;;5018441;28;20217;-77
2023/08/17 05:01:20;;;;;;;3.85;3.20;;;;;;;;;;4980656;28;20233;-76
2023/08/17 05:03:46;;;;;;;3.65;3.05;;;;;;;;;;4971468;28;20249;-77
2023/08/17 05:06:13;;;;;;;3.90;2.47;;;;;;;;;;4986009;28;20222;-76
2023/08/17 05:08:41;;;;;;;3.70;2.22;;;;;;;;;;4998943;28;20255;-77
2023/08/17 05:11:12;;;;;;;3.97;2.65;;;;;;;;;;4974988;28;20224;-77
2023/08/17 05:13:38;;;;;;;4.32;2.80;;;;;;;;;;4987005;28;20927;-76
2023/08/17 05:16:05;;;;;;;2.80;2.45;;;;;;;;;;5016811;28;20257;-76
2023/08/17 05:18:31;;;;;;;3.60;2.67;;;;;;;;;;5015256;28;20217;-76
2023/08/17 05:20:59;;;;;;;2.95;2.50;;;;;;;;;;4969325;28;20670;-75
2023/08/17 05:23:24;;;;;;;2.97;2.20;;;;;;;;;;4975667;28;20734;-76
2023/08/17 05:25:53;;;;;;;2.92;2.45;;;;;;;;;;4990116;28;20220;-76
2023/08/17 05:28:21;;;;;;;2.92;2.63;;;;;;;;;;5000347;28;20222;-76
2023/08/17 05:30:53;;;;;;;2.67;2.47;;;;;;;;;;4981991;28;20240;-75
2023/08/17 05:33:19;;;;;;;3.08;2.30;;;;;;;;;;4968077;28;20694;-76
2023/08/17 05:35:53;;;;;;;3.22;2.40;;;;;;;;;;4990421;28;20283;-76
2023/08/17 05:38:19;;;;;;;3.47;2.35;;;;;;;;;;4984051;28;20218;-76
2023/08/17 05:40:47;;;;;;;3.05;2.53;;;;;;;;;;4965724;28;20218;-76
2023/08/17 05:43:16;;;;;;;2.22;1.92;;;;;;;;;;4972365;28;20596;-76
2023/08/17 05:45:44;;;;;;;2.47;2.08;;;;;;;;;;4984988;28;20761;-75
2023/08/17 05:48:10;;;;;;;2.70;2.10;;;;;;;;;;4974110;28;20216;-75
2023/08/17 05:50:43;;;;;;;3.28;2.60;;;;;;;;;;4992415;28;20218;-76
2023/08/17 05:53:14;;;;;;;2.17;1.98;;;;;;;;;;4987776;28;20221;-75
2023/08/17 05:55:39;;;;;;;5.65;2.45;;;;;;;;;;5000520;28;20686;-76
2023/08/17 05:58:05;;;;;;;3.40;2.30;;;;;;;;;;4982069;28;20208;-74
2023/08/17 06:00:30;;;;;;;2.90;2.17;;;;;;;;;;5006465;28;20248;-77
2023/08/17 06:03:01;;;;;;;2.92;2.25;;;;;;;;;;4964557;28;20744;-76
2023/08/17 06:05:28;;;;;;;1.95;1.73;;;;;;;;;;4966259;28;20282;-77
2023/08/17 06:07:59;;;;;;;2.58;2.38;;;;;;;;;;4966482;28;20304;-76
2023/08/17 06:10:27;;;;;;;3.60;2.40;;;;;;;;;;4980169;28;20213;-77
2023/08/17 06:12:56;;;;;;;3.28;2.15;;;;;;;;;;4999373;28;20220;-76
2023/08/17 06:15:22;;;;;;;2.63;2.10;;;;;;;;;;4971458;28;20224;-76
2023/08/17 06:17:55;;;;;;;4.65;2.53;;;;;;;;;;4967863;28;20245;-76
2023/08/17 06:20:20;;;;;;;3.10;2.60;;;;;;;;;;5009520;28;20228;-76
2023/08/17 06:22:47;;;;;;;5.78;2.65;;;;;;;;;;5015853;28;20220;-76
2023/08/17 06:25:25;;;;;;;7.50;2.50;;;;;;;;;;5002303;28;20225;-76
2023/08/17 06:28:21;;;;;;;2.90;2.30;;;;;;;;;;5001825;28;20217;-76
2023/08/17 06:31:20;;;;;;;2.45;2.13;;;;;;;;;;4999080;28;20343;-77
2023/08/17 06:34:14;;;;;;;2.83;2.00;;;;;;;;;;4997326;28;20291;-76
2023/08/17 06:37:13;;;;;;;2.05;1.75;;;;;;;;;;4999930;28;20643;-76
2023/08/17 06:42:36;;;;;;;2.35;2.08;;;;;;;;;;4917415;29;20750;-75
2023/08/17 06:45:38;;;;;;;2.65;1.60;;;;;;;;;;4927522;28;20233;-76
2023/08/17 06:48:04;;;;;;;2.85;1.98;;;;;;;;;;5012219;28;20753;-76
2023/08/17 06:50:35;;;;;;;1.52;1.40;;;;;;;;;;4988410;28;20222;-76
2023/08/17 06:53:04;;;;;;;2.42;1.60;;;;;;;;;;4965270;28;21109;-75
2023/08/17 06:55:29;;;;;;;1.80;1.40;;;;;;;;;;4988809;28;20258;-76
2023/08/17 07:01:51;;;;;;;1.83;1.48;;;;;;;;;;4992026;28;20287;-75
2023/08/17 07:04:23;;;;;;;4.15;1.52;;;;;;;;;;4999991;28;20236;-76
2023/08/17 07:07:39;;;;;;;2.72;1.90;;;;;;;;;;4990634;28;20224;-76
2023/08/17 07:11:05;;;;;;;2.58;1.90;;;;;;;;;;5004132;28;20236;-75
2023/08/17 07:13:39;;;;;;;1.52;1.42;;;;;;;;;;5009714;28;20614;-76
2023/08/17 07:16:26;;;;;;;2.70;1.50;;;;;;;;;;4971671;28;20681;-76
2023/08/17 07:22:02;;;;;;;1.55;1.35;;;;;;;;;;5005710;28;20227;-74
2023/08/17 07:25:19;;;;;;;3.00;1.75;;;;;;;;;;4997723;28;20220;-76
2023/08/17 07:28:15;;;;;;;5.72;2.33;;;;;;;;;;4994012;28;20300;-76
2023/08/17 07:34:42;;;;;;;3.00;1.50;;;;;;;;;;5006352;28;20351;-76
2023/08/17 07:37:36;;;;;;;1.95;1.75;;;;;;;;;;4995554;28;20216;-75
2023/08/17 07:40:34;;;;;;;1.85;1.73;;;;;;;;;;4998764;28;20228;-76
2023/08/17 07:43:06;;;;;;;3.42;1.92;;;;;;;;;;4979067;28;20601;-75
2023/08/17 07:45:35;;;;;;;2.70;1.42;;;;;;;;;;4977910;28;20229;-75
2023/08/17 07:48:03;;;;;;;2.03;1.83;;;;;;;;;;4947066;28;20216;-75
2023/08/17 07:50:42;;;;;;;2.00;1.63;;;;;;;;;;4982375;28;20220;-76
2023/08/17 07:53:15;;;;;;;2.33;1.70;;;;;;;;;;4993875;28;20278;-76
2023/08/17 07:55:49;;;;;;;2.22;2.03;;;;;;;;;;4993426;28;20213;-76
2023/08/17 07:58:20;;;;;;;4.68;1.85;;;;;;;;;;4993841;28;20216;-74
2023/08/17 08:02:18;;;;;;;1.92;1.80;;;;;;;;;;4989952;28;20220;-76
2023/08/17 08:04:46;;;;;;;2.45;1.83;;;;;;;;;;4960729;28;20227;-76
2023/08/17 08:07:36;;;;;;;1.63;1.50;;;;;;;;;;4962853;28;20223;-75
2023/08/17 08:10:08;;;;;;;1.98;1.55;;;;;;;;;;5009526;28;20225;-75
2023/08/17 08:13:07;;;;;;;3.22;1.90;;;;;;;;;;5017025;28;20765;-76
2023/08/17 08:15:42;;;;;;;1.95;1.85;;;;;;;;;;4975821;28;20225;-75
2023/08/17 08:18:36;;;;;;;1.95;1.52;;;;;;;;;;5004230;28;20223;-75
2023/08/17 08:21:49;;;;;;;2.97;1.92;;;;;;;;;;5013410;28;20693;-76
2023/08/17 08:24:23;;;;;;;1.83;1.60;;;;;;;;;;5002115;28;20323;-75
2023/08/17 08:27:14;;;;;;;1.75;1.65;;;;;;;;;;4993154;28;20243;-76
2023/08/17 08:29:54;;;;;;;2.13;1.92;;;;;;;;;;5009685;28;20232;-75
2023/08/17 08:32:25;;;;;;;4.22;1.90;;;;;;;;;;4993580;28;20291;-75
2023/08/17 08:35:11;;;;;;;1.70;1.60;;;;;;;;;;5001209;28;20220;-75
2023/08/17 08:37:36;;;;;;;1.67;1.30;;;;;;;;;;4968197;28;20232;-74
2023/08/17 08:40:33;;;;;;;1.80;1.50;;;;;;;;;;4971187;28;20270;-75
2023/08/17 08:43:01;;;;;;;1.25;1.20;;;;;;;;;;4970016;28;20769;-75
2023/08/17 08:45:59;;;;;;;1.33;1.25;;;;;;;;;;5016508;28;20634;-75
2023/08/17 08:49:00;;;;;;;1.27;1.17;;;;;;;;;;4961014;28;20223;-75
2023/08/17 08:51:28;;;;;;;1.27;1.17;;;;;;;;;;4919977;28;20218;-75
2023/08/17 08:54:09;;;;;;;1.20;1.10;;;;;;;;;;4921323;28;20226;-76
2023/08/17 08:57:12;;;;;;;1.02;1.02;;;;;;;;;;4936306;28;20225;-75
2023/08/17 09:00:17;;;;;;;1.30;1.20;;;;;;;;;;4997903;28;20217;-75
2023/08/17 09:02:55;;;;;;;1.08;1.08;;;;;;;;;;4983740;28;20229;-75
2023/08/17 09:05:29;;;;;;;1.45;1.10;;;;;;;;;;4985378;28;20221;-76
2023/08/17 09:08:06;;;;;;;1.38;1.27;;;;;;;;;;5000942;28;20243;-75
2023/08/17 09:11:02;;;;;;;1.40;1.27;;;;;;;;;;4993130;28;20595;-75
2023/08/17 09:13:57;;;;;;;5.35;1.40;;;;;;;;;;4991130;28;20698;-75
2023/08/17 09:16:26;;;;;;;1.55;1.42;;;;;;;;;;4973204;28;20227;-75
2023/08/17 09:19:01;;;;;;;1.27;1.17;;;;;;;;;;4999993;28;20229;-77
2023/08/17 09:21:31;;;;;;;1.40;1.30;;;;;;;;;;4981492;28;20213;-75
2023/08/17 09:23:57;;;;;;;1.15;1.15;;;;;;;;;;4972246;28;20252;-75
2023/08/17 09:26:38;;;;;;;1.83;1.52;;;;;;;;;;4966127;28;20233;-75
2023/08/17 09:29:22;;;;;;;1.40;1.30;;;;;;;;;;5001449;28;20303;-76
2023/08/17 09:31:54;;;;;;;3.13;1.65;;;;;;;;;;4973622;28;20678;-75
2023/08/17 09:34:55;;;;;;;1.85;1.20;;;;;;;;;;5006487;28;20315;-75
2023/08/17 09:37:21;;;;;;;1.35;1.20;;;;;;;;;;4987515;28;20660;-75
2023/08/17 09:44:41;;;;;;;1.25;1.20;;;;;;;;;;5000458;28;20284;-75
2023/08/17 09:47:08;;;;;;;1.30;1.20;;;;;;;;;;4878847;29;20231;-75
2023/08/17 09:50:02;;;;;;;1.40;1.30;;;;;;;;;;4927031;28;20699;-77
2023/08/17 09:53:00;;;;;;;1.20;1.20;;;;;;;;;;4951930;28;20234;-76
2023/08/17 09:55:37;;;;;;;1.33;1.23;;;;;;;;;;4943336;28;20259;-75
2023/08/17 09:58:19;;;;;;;3.65;1.40;;;;;;;;;;4930208;28;20623;-75
2023/08/17 10:04:25;;;;;;;3.80;1.60;;;;;;;;;;4945059;28;20643;-76
2023/08/17 10:07:37;;;;;;;1.40;1.30;;;;;;;;;;4945441;28;20233;-76
2023/08/17 10:10:03;;;;;;;2.58;1.45;;;;;;;;;;4919789;28;20265;-75
2023/08/17 10:12:37;;;;;;;1.65;1.45;;;;;;;;;;4941826;28;20238;-75
2023/08/17 10:15:29;;;;;;;1.67;1.58;;;;;;;;;;4944225;28;20898;-75
2023/08/17 10:18:40;;;;;;;1.65;1.35;;;;;;;;;;4940150;28;20787;-75
2023/08/17 10:21:26;;;;;;;1.60;1.30;;;;;;;;;;4945266;28;20261;-76
2023/08/17 10:24:08;;;;;;;2.97;1.00;;;;;;;;;;4978635;28;20248;-75
2023/08/17 10:26:40;;;;;;;1.50;1.40;;;;;;;;;;4949032;28;20217;-75
2023/08/17 10:29:08;;;;;;;1.48;1.38;;;;;;;;;;4972134;28;20212;-75
2023/08/17 10:31:46;;;;;;;1.35;1.25;;;;;;;;;;5000132;28;20248;-75
2023/08/17 10:34:20;;;;;;;1.42;1.33;;;;;;;;;;4983908;28;20225;-76
2023/08/17 10:36:58;;;;;;;1.25;1.15;;;;;;;;;;5013897;28;20221;-75
2023/08/17 10:39:39;;;;;;;2.45;1.40;;;;;;;;;;4957127;28;20232;-75
2023/08/17 10:42:57;;;;;;;1.30;1.02;;;;;;;;;;5014055;28;20656;-76
2023/08/17 10:49:03;;;;;;;1.38;1.27;;;;;;;;;;5008323;28;20298;-76
2023/08/17 10:51:29;;;;;;;1.17;1.17;;;;;;;;;;5012692;28;20248;-76
2023/08/17 10:54:47;;;;;;;4.85;1.50;;;;;;;;;;4991733;28;20217;-75
2023/08/17 11:01:45;;;;;;;0.88;0.88;;;;;;;;;;4938743;28;20222;-75
2023/08/17 11:08:34;;;;;;;2.47;1.10;;;;;;;;;;4921153;28;20232;-77
2023/08/17 11:11:15;;;;;;;1.10;1.00;;;;;;;;;;4963010;28;20300;-77
2023/08/17 11:13:45;;;;;;;1.20;1.10;;;;;;;;;;4967027;28;21232;-75
2023/08/17 11:17:04;;;;;;;1.65;1.30;;;;;;;;;;4957331;28;20723;-76
2023/08/17 11:19:45;;;;;;;1.27;1.17;;;;;;;;;;4982892;28;20278;-75
2023/08/17 11:22:11;;;;;;;1.08;1.00;;;;;;;;;;4978380;28;20245;-76
2023/08/17 11:24:40;;;;;;;1.27;1.13;;;;;;;;;;4983155;28;20256;-75
2023/08/17 11:27:28;;;;;;;1.10;0.95;;;;;;;;;;4988988;28;20209;-76
2023/08/17 11:30:15;;;;;;;1.67;0.88;;;;;;;;;;4991201;28;20746;-77
2023/08/17 11:33:13;;;;;;;1.92;1.00;;;;;;;;;;4988832;28;20229;-76
2023/08/17 11:38:59;;;;;;;1.10;1.00;;;;;;;;;;4991831;28;20329;-76
2023/08/17 11:41:52;;;;;;;1.52;1.15;;;;;;;;;;4997907;28;20226;-77
2023/08/17 11:44:22;;;;;;;1.00;1.00;;;;;;;;;;4992603;28;20241;-79
2023/08/17 11:46:48;;;;;;;1.02;0.90;;;;;;;;;;4986421;28;20247;-77
2023/08/17 11:49:16;;;;;;;1.55;1.05;;;;;;;;;;4979525;28;20213;-77
2023/08/17 11:51:57;;;;;;;0.90;0.90;;;;;;;;;;4985078;28;20232;-77
2023/08/17 11:54:44;;;;;;;0.95;0.95;;;;;;;;;;5000668;28;20260;-76
2023/08/17 11:57:21;;;;;;;1.33;1.02;;;;;;;;;;5011919;28;20225;-77
2023/08/17 12:00:00;;;;;;;1.30;1.00;;;;;;;;;;4974535;28;20228;-77
2023/08/17 12:02:30;;;;;;;0.95;0.95;;;;;;;;;;4998191;28;20228;-76
2023/08/17 12:05:42;;;;;;;2.20;1.17;;;;;;;;;;5015966;28;20246;-77
2023/08/17 12:08:22;;;;;;;1.00;1.00;;;;;;;;;;4962417;28;20309;-77
2023/08/17 12:11:09;;;;;;;1.92;1.00;;;;;;;;;;4981840;28;20224;-77
2023/08/17 12:14:09;;;;;;;1.45;1.00;;;;;;;;;;5015495;28;20301;-75
2023/08/17 12:17:10;;;;;;;1.23;0.95;;;;;;;;;;4978312;28;21061;-77
2023/08/17 12:20:15;;;;;;;0.82;0.82;;;;;;;;;;4996020;28;20760;-75
2023/08/17 12:23:01;;;;;;;0.93;0.88;;;;;;;;;;4974751;28;20622;-76
2023/08/17 12:29:29;;;;;;;1.00;0.90;;;;;;;;;;4987470;28;20229;-76
2023/08/17 12:35:31;;;;;;;1.98;1.00;;;;;;;;;;4994339;28;20235;-76
2023/08/17 12:38:39;;;;;;;1.23;1.10;;;;;;;;;;5013274;28;20223;-76
2023/08/17 12:41:05;;;;;;;1.58;0.98;;;;;;;;;;5007559;28;20296;-76
2023/08/17 12:43:33;;;;;;;1.00;1.00;;;;;;;;;;4984155;28;20311;-77
2023/08/17 12:46:32;;;;;;;1.20;1.02;;;;;;;;;;5000502;28;20232;-76
2023/08/17 12:49:26;;;;;;;1.00;0.90;;;;;;;;;;5000213;28;20599;-76
2023/08/17 12:52:11;;;;;;;1.55;1.00;;;;;;;;;;5002399;28;20297;-76
2023/08/17 12:54:57;;;;;;;6.20;1.10;;;;;;;;;;4952859;28;20232;-77
2023/08/17 12:57:34;;;;;;;0.80;0.80;;;;;;;;;;5000592;28;20225;-76
2023/08/17 13:00:37;;;;;;;3.47;1.25;;;;;;;;;;5007674;28;20209;-77
2023/08/17 13:03:15;;;;;;;0.82;0.82;;;;;;;;;;4998566;28;20712;-77
2023/08/17 13:09:48;;;;;;;1.27;0.98;;;;;;;;;;4999976;28;20228;-76
2023/08/17 13:12:28;;;;;;;1.30;0.95;;;;;;;;;;4987274;28;20236;-76
2023/08/17 13:15:07;;;;;;;0.95;0.95;;;;;;;;;;5000282;28;20731;-76
2023/08/17 13:17:50;;;;;;;1.02;1.00;;;;;;;;;;4998424;28;20224;-76
2023/08/17 13:20:43;;;;;;;0.80;0.80;;;;;;;;;;5000315;28;20248;-76
2023/08/17 13:23:19;;;;;;;1.88;1.00;;;;;;;;;;5014298;28;20601;-76
2023/08/17 13:26:22;;;;;;;1.50;1.10;;;;;;;;;;5007709;28;20229;-76
2023/08/17 13:28:55;;;;;;;2.00;1.13;;;;;;;;;;5003611;28;20235;-76
2023/08/17 13:31:31;;;;;;;0.85;0.85;;;;;;;;;;5014186;28;20221;-76
2023/08/17 13:34:50;;;;;;;1.80;1.13;;;;;;;;;;4985166;28;20231;-77
2023/08/17 13:38:04;;;;;;;1.27;1.17;;;;;;;;;;5001931;28;20229;-76
2023/08/17 13:40:38;;;;;;;2.42;1.33;;;;;;;;;;5004789;28;20243;-77
2023/08/17 13:44:11;;;;;;;1.10;1.00;;;;;;;;;;4982336;28;20220;-76
2023/08/17 13:47:03;;;;;;;1.30;1.20;;;;;;;;;;4996687;28;20267;-77
2023/08/17 13:49:58;;;;;;;1.50;1.13;;;;;;;;;;4988777;28;20302;-78
2023/08/17 13:52:32;;;;;;;1.40;1.30;;;;;;;;;;4946537;28;20228;-77
2023/08/17 13:55:06;;;;;;;1.58;1.48;;;;;;;;;;4961735;28;20220;-76
2023/08/17 13:57:47;;;;;;;1.38;1.27;;;;;;;;;;4984068;28;20249;-77
2023/08/17 14:00:13;;;;;;;1.30;1.17;;;;;;;;;;5016523;28;20307;-77
2023/08/17 14:06:36;;;;;;;1.55;1.30;;;;;;;;;;4999979;28;20279;-75
2023/08/17 14:09:36;;;;;;;1.25;1.20;;;;;;;;;;4996459;28;20232;-77
2023/08/17 14:19:52;;;;;;;1.60;1.50;;;;;;;;;;4966595;28;20228;-78
2023/08/17 14:22:45;;;;;;;3.03;1.63;;;;;;;;;;4970332;28;20240;-76
2023/08/17 14:25:11;;;;;;;2.00;1.80;;;;;;;;;;4952128;28;20267;-77
2023/08/17 14:27:53;;;;;;;2.15;1.67;;;;;;;;;;4952307;28;20226;-76
2023/08/17 14:30:46;;;;;;;2.45;1.77;;;;;;;;;;4970358;28;20236;-77
2023/08/17 14:39:17;;;;;;;1.75;1.65;;;;;;;;;;4955366;28;20228;-77
2023/08/17 14:42:30;;;;;;;1.38;1.30;;;;;;;;;;4973332;28;20225;-76
2023/08/17 14:45:15;;;;;;;1.50;1.40;;;;;;;;;;4970877;28;20225;-77
2023/08/17 14:47:54;;;;;;;1.55;1.45;;;;;;;;;;4980766;28;20232;-76
2023/08/17 14:51:07;;;;;;;2.50;1.63;;;;;;;;;;4984676;28;20217;-77
2023/08/17 14:53:45;;;;;;;1.60;1.50;;;;;;;;;;4947419;28;20231;-77
2023/08/17 14:56:19;;;;;;;2.05;1.60;;;;;;;;;;4983268;28;20251;-77
2023/08/17 14:58:51;;;;;;;2.47;1.80;;;;;;;;;;4990063;28;20220;-77
2023/08/17 15:01:34;;;;;;;2.03;1.58;;;;;;;;;;5003693;28;20209;-78
2023/08/17 15:04:21;;;;;;;1.95;1.85;;;;;;;;;;5004307;28;20219;-79
2023/08/17 15:07:10;;;;;;;2.85;1.70;;;;;;;;;;4975523;28;20225;-77
2023/08/17 15:09:38;;;;;;;2.00;1.90;;;;;;;;;;5001900;28;20217;-75
2023/08/17 15:12:28;;;;;;;1.70;1.60;;;;;;;;;;4965846;28;20228;-77
2023/08/17 15:15:15;;;;;;;5.53;1.85;;;;;;;;;;4979745;28;20303;-76
2023/08/17 15:17:40;;;;;;;2.88;1.95;;;;;;;;;;4975224;28;20304;-76
2023/08/17 15:20:06;;;;;;;2.13;1.92;;;;;;;;;;4968511;28;20225;-76
2023/08/17 15:22:40;;;;;;;1.95;1.85;;;;;;;;;;4999951;28;20240;-76
2023/08/17 15:25:58;;;;;;;2.22;1.55;;;;;;;;;;4977782;28;20271;-77
2023/08/17 15:28:44;;;;;;;4.22;3.45;;;;;;;;;;4998386;28;20588;-76
2023/08/17 15:31:12;;;;;;;1.88;1.77;;;;;;;;;;5013155;28;20225;-76
2023/08/17 15:33:41;;;;;;;4.60;1.63;;;;;;;;;;5016803;28;20667;-77
2023/08/17 15:36:44;;;;;;;2.28;1.33;;;;;;;;;;5014184;28;20316;-77
2023/08/17 15:39:12;;;;;;;1.40;1.30;;;;;;;;;;4989654;28;20232;-75
2023/08/17 15:41:56;;;;;;;2.40;1.50;;;;;;;;;;4998086;28;20709;-76
2023/08/17 15:50:06;;;;;;;2.15;1.48;;;;;;;;;;5017372;28;20246;-87
2023/08/17 15:53:08;;;;;;;1.58;1.17;;;;;;;;;;5001905;28;20222;-86
2023/08/17 15:56:20;;;;;;;5.50;1.65;;;;;;;;;;5010158;28;20580;-87
2023/08/17 15:59:04;;;;;;;3.05;1.63;;;;;;;;;;4862607;29;20319;-86
2023/08/17 16:01:35;;;;;;;4.35;1.95;;;;;;;;;;4823777;29;20242;-88
2023/08/17 16:08:33;;;;;;;1.70;1.58;;;;;;;;;;4393938;31;71240;-86
2023/08/17 16:10:59;;;;;;;2.03;1.67;;;;;;;;;;4403522;32;20327;-87
2023/08/17 16:17:39;;;;;;;3.40;1.85;;;;;;;;;;4400948;32;20311;-87
2023/08/17 16:20:11;;;;;;;2.13;1.70;;;;;;;;;;4422717;32;20276;-83
2023/08/17 16:22:39;;;;;;;3.67;1.83;;;;;;;;;;4425407;32;20260;-85
2023/08/17 16:25:06;;;;;;;2.58;2.03;;;;;;;;;;4430896;32;20231;-83
2023/08/17 16:27:33;;;;;;;2.35;1.60;;;;;;;;;;4478637;31;20276;-86
2023/08/17 16:30:04;;;;;;;3.13;1.80;;;;;;;;;;4464646;32;20354;-84
2023/08/17 16:32:31;;;;;;;2.58;1.88;;;;;;;;;;4472906;31;20725;-84
2023/08/17 16:34:57;;;;;;;2.45;2.00;;;;;;;;;;4473282;31;20246;-84
2023/08/17 16:37:25;;;;;;;1.83;1.73;;;;;;;;;;4469003;31;20238;-84
2023/08/17 16:39:53;;;;;;;3.40;1.70;;;;;;;;;;4474776;31;20244;-85
2023/08/17 16:42:21;;;;;;;3.88;1.80;;;;;;;;;;4468868;31;20243;-84
2023/08/17 16:44:46;;;;;;;2.17;1.77;;;;;;;;;;4477916;31;20241;-85
2023/08/17 16:47:12;;;;;;;2.33;2.08;;;;;;;;;;4475942;31;20230;-88
2023/08/17 16:49:40;;;;;;;2.50;1.70;;;;;;;;;;4475592;32;20325;-86
2023/08/17 16:52:06;;;;;;;2.08;1.83;;;;;;;;;;4479709;31;20245;-85
2023/08/17 16:54:33;;;;;;;2.38;2.15;;;;;;;;;;4472849;31;20250;-86
2023/08/17 16:56:59;;;;;;;1.90;1.70;;;;;;;;;;4479737;31;20239;-87
2023/08/17 16:59:27;;;;;;;1.83;1.70;;;;;;;;;;4474642;31;20270;-86
2023/08/17 17:01:54;;;;;;;2.75;1.63;;;;;;;;;;4474119;31;20258;-86